This is the latest recevied weather packets stored in our database for station/object DB2AG-13. If no packets are shown the sender has not sent any weather packets the latest 10 day(s).
| Time | Temp. | Humidity | Pressure | Rain* | Wind** | Luminosity | Snow |
|---|---|---|---|---|---|---|---|
| 1788083193 | 22.78° C | 47% | 1012.7 hPa | - | - | - | - |
| 1788082654 | 22.78° C | 47% | 1012.6 hPa | - | - | - | - |
| 1788082119 | 22.22° C | 47% | 1012.7 hPa | - | - | - | - |
| 1788081580 | 22.78° C | 47% | 1012.6 hPa | - | - | - | - |
| 1788080503 | 23.33° C | 45% | 1012.5 hPa | - | - | - | - |
| 1788079964 | 24.44° C | 45% | 1012.3 hPa | - | - | - | - |
| 1788079424 | 25.56° C | 42% | 1012.2 hPa | - | - | - | - |
| 1788078344 | 27.22° C | 42% | 1012 hPa | - | - | - | - |
| 1788077268 | 26.11° C | 43% | 1012 hPa | - | - | - | - |
| 1788076724 | 26.67° C | 44% | 1011.8 hPa | - | - | - | - |
| 1788076185 | 26.11° C | 46% | 1011.8 hPa | - | - | - | - |
| 1788075640 | 25.56° C | 47% | 1011.7 hPa | - | - | - | - |
| 1788075101 | 25.56° C | 47% | 1011.7 hPa | - | - | - | - |
| 1788074567 | 25° C | 48% | 1011.5 hPa | - | - | - | - |
| 1788074033 | 24.44° C | 52% | 1011.3 hPa | - | - | - | - |
| 1788073490 | 23.33° C | 53% | 1011.3 hPa | - | - | - | - |
| 1788072944 | 22.78° C | 55% | 1011.1 hPa | - | - | - | - |
| 1788072401 | 22.22° C | 56% | 1011.2 hPa | - | - | - | - |
| 1788071856 | 22.78° C | 55% | 1011.2 hPa | - | - | - | - |
| 1788071315 | 22.78° C | 56% | 1011.1 hPa | - | - | - | - |
| 1788070786 | 22.22° C | 57% | 1011.1 hPa | - | - | - | - |
| 1788070259 | 21.67° C | 61% | 1011 hPa | - | - | - | - |
| 1788069190 | 19.44° C | 67% | 1010.9 hPa | - | - | - | - |
| 1788068658 | 17.78° C | 71% | 1010.9 hPa | - | - | - | - |
| 1788067585 | 17.78° C | 72% | 1010.9 hPa | - | - | - | - |
* Rain since midnight (hover to see other rain measurements)
** Current wind speed in m/s (hover to see current wind gust speed)